Terminal Aerodrome Forecast
Issued by NWS

Home | Current Version | Previous Version | Text Only | Print | Product List | Glossary On
Versions: 1 2 3 4 5 6 7 8 9 10 11 12 13 14 15 16 17
000
FTUS46 KLOX 190500
TAFVNY
TAF
KVNY 190537Z 1906/2006 VRB03KT P6SM SCT040
     FM192100 14006KT P6SM SCT025 BKN080
     FM200200 VRB03KT P6SM SCT025 BKN050=

USA.gov is the U.S. government's official web portal to all federal, state and local government web resources and services.